To NAV CANADA Home Page Login to a new session Search on AWWS site Feedback and Comments Disclaimer Vers la page française équivalente Tips FAQ What's new on the site To the Forecasts and Observations / NOTAM section To "File a Flight Plan" website Publications and other links Update of the User's profile FIC Telephone Numbers My Weather Data Folder Route Weather Data Regional Weather Data Local Weather Data To the Forecasts and Observations / NOTAM section
Request Generated 04/23/2014 at 17:31:07 UTC . Weather information available at that time is displayed.

METAR/TAF

WHALE COVE/NU    

METAR CYXN 231700Z 34009KT 15SM FEW220 M14/M17 A3034 RMK CI2 SLP275=
METAR CYXN 231600Z 34011KT 15SM FEW220 M15/M18 A3033 RMK CI2 SLP273=
METAR CYXN 231500Z 35014KT 15SM FEW030 SCT220 M14/M17 A3032 RMK
SC1CI3 SLP268=

CYXN - No TAF is issued for this station

Your time UTC time
Weather data provided by Environment Canada and NAV CANADA